Time;durP1;ratioP1;P1;durP2;ratioP2;P2;SDS_P1;SDS_P2;PMS_P1;PMS_P2;Temp;Humidity;BMP_temperature;BMP_pressure;BME280_temperature;BME280_humidity;BME280_pressure;Samples;Min_cycle;Max_cycle;Signal;HPM_P1;HPM_P2
2021/09/24 00:02:03;;;;;;;24.83;4.65;;;;;;;12.66;64.50;100815.25;4900765;29;20036;-54
2021/09/24 00:04:31;;;;;;;15.32;3.53;;;;;;;12.59;65.03;100812.78;4901542;29;20040;-52
2021/09/24 00:06:56;;;;;;;17.80;2.95;;;;;;;12.68;64.78;100830.03;4902621;29;20084;-54
2021/09/24 00:09:22;;;;;;;20.25;3.75;;;;;;;12.69;64.78;100828.16;4899030;29;20295;-54
2021/09/24 00:11:47;;;;;;;20.52;3.60;;;;;;;12.69;65.01;100812.03;4903354;29;20123;-55
2021/09/24 00:14:13;;;;;;;15.23;3.25;;;;;;;12.61;65.21;100817.91;4898634;29;20039;-55
2021/09/24 00:16:39;;;;;;;17.30;3.83;;;;;;;12.66;65.16;100816.06;4903880;29;20219;-53
2021/09/24 00:19:05;;;;;;;16.10;2.90;;;;;;;12.71;64.85;100820.63;4902903;29;20092;-53
2021/09/24 00:21:31;;;;;;;17.67;3.67;;;;;;;12.71;65.33;100831.41;4901104;29;20032;-52
2021/09/24 00:23:57;;;;;;;19.88;3.65;;;;;;;12.66;65.49;100826.81;4916942;29;20471;-55
2021/09/24 00:26:22;;;;;;;18.50;3.88;;;;;;;12.66;65.40;100831.38;4901037;29;20035;-55
2021/09/24 00:28:48;;;;;;;22.48;3.53;;;;;;;12.68;65.36;100834.59;4903425;29;20027;-55
2021/09/24 00:31:13;;;;;;;15.80;3.38;;;;;;;12.64;65.61;100828.13;4903004;29;20208;-53
2021/09/24 00:33:38;;;;;;;19.02;3.47;;;;;;;12.61;65.39;100828.66;4903711;29;20453;-54
2021/09/24 00:36:06;;;;;;;23.98;3.83;;;;;;;12.59;65.66;100830.81;4897507;29;20032;-52
2021/09/24 00:38:32;;;;;;;24.73;3.30;;;;;;;12.67;65.33;100838.38;4902258;29;20060;-54
2021/09/24 00:40:57;;;;;;;12.00;2.40;;;;;;;12.68;65.67;100832.72;4906204;29;20399;-56
2021/09/24 00:43:23;;;;;;;15.60;3.00;;;;;;;12.66;65.79;100831.38;4899789;29;20036;-54
2021/09/24 00:45:49;;;;;;;13.07;2.75;;;;;;;12.65;65.78;100832.44;4904704;29;20472;-55
2021/09/24 00:48:14;;;;;;;14.55;3.53;;;;;;;12.59;65.95;100845.06;4897308;29;20044;-53
2021/09/24 00:50:40;;;;;;;16.33;3.58;;;;;;;12.57;66.03;100830.25;4902249;29;20032;-55
2021/09/24 00:53:09;;;;;;;14.48;2.90;;;;;;;12.54;66.15;100820.00;4899345;29;20033;-54
2021/09/24 00:55:35;;;;;;;12.95;2.80;;;;;;;12.51;66.49;100825.91;4904760;29;20036;-55
2021/09/24 00:58:00;;;;;;;15.20;3.50;;;;;;;12.55;66.24;100819.75;4901650;29;20039;-55
2021/09/24 01:00:26;;;;;;;19.00;2.72;;;;;;;12.50;66.65;100843.09;4899787;29;20297;-53
2021/09/24 01:02:51;;;;;;;11.20;2.92;;;;;;;12.42;67.10;100838.22;4906922;29;20184;-54
2021/09/24 01:05:17;;;;;;;11.90;2.88;;;;;;;12.46;67.14;100844.69;4904967;29;20133;-53
2021/09/24 01:07:44;;;;;;;13.57;3.58;;;;;;;12.43;67.20;100864.00;4904033;29;20063;-55
2021/09/24 01:10:12;;;;;;;10.35;2.72;;;;;;;12.44;67.11;100846.81;4909667;29;20032;-55
2021/09/24 01:12:38;;;;;;;12.90;2.97;;;;;;;12.35;67.86;100855.34;4901909;29;20029;-54
2021/09/24 01:15:07;;;;;;;12.13;2.75;;;;;;;12.41;67.71;100853.53;4904208;29;20526;-55
2021/09/24 01:17:33;;;;;;;16.58;2.42;;;;;;;12.40;67.78;100863.47;4908301;29;20087;-55
2021/09/24 01:19:59;;;;;;;15.57;3.05;;;;;;;12.40;67.67;100858.09;4902689;29;20032;-56
2021/09/24 01:22:24;;;;;;;18.02;3.40;;;;;;;12.42;67.87;100863.19;4902041;29;20633;-56
2021/09/24 01:24:50;;;;;;;21.45;3.10;;;;;;;12.43;67.83;100859.44;4905409;29;20020;-55
2021/09/24 01:27:15;;;;;;;15.18;3.17;;;;;;;12.44;67.98;100858.38;4900186;29;20054;-55
2021/09/24 01:29:41;;;;;;;23.38;3.40;;;;;;;12.38;68.18;100865.56;4899683;29;20028;-53
2021/09/24 01:32:07;;;;;;;18.55;2.70;;;;;;;12.46;68.09;100855.44;4905403;29;20031;-55
2021/09/24 01:34:33;;;;;;;11.40;2.15;;;;;;;12.46;68.26;100866.19;4903100;29;20042;-55
2021/09/24 01:36:59;;;;;;;13.50;3.30;;;;;;;12.43;68.31;100870.19;4903494;29;20028;-53
2021/09/24 01:39:24;;;;;;;15.77;2.85;;;;;;;12.48;68.20;100864.03;4904774;29;20151;-54
2021/09/24 01:41:51;;;;;;;13.32;3.17;;;;;;;12.51;68.29;100866.22;4906352;29;20043;-55
2021/09/24 01:44:17;;;;;;;19.08;3.47;;;;;;;12.49;68.55;100871.03;4901263;29;20451;-54
2021/09/24 01:46:44;;;;;;;17.75;3.17;;;;;;;12.47;68.52;100867.78;4902205;29;20064;-53
2021/09/24 01:49:11;;;;;;;12.02;2.72;;;;;;;12.43;68.86;100869.38;4900529;29;20059;-54
2021/09/24 01:51:39;;;;;;;11.52;2.25;;;;;;;12.40;69.13;100871.53;4903028;29;20036;-53
2021/09/24 01:54:06;;;;;;;12.02;2.42;;;;;;;12.31;69.49;100878.41;4907716;29;20027;-54
2021/09/24 01:56:32;;;;;;;16.85;3.17;;;;;;;12.26;69.72;100881.06;4906780;29;20710;-54
2021/09/24 01:58:58;;;;;;;12.80;3.33;;;;;;;12.21;70.21;100882.88;4903904;29;20028;-53
2021/09/24 02:01:23;;;;;;;11.13;2.63;;;;;;;12.06;70.73;100873.66;4904067;29;20049;-55
2021/09/24 02:03:49;;;;;;;15.05;2.72;;;;;;;12.12;70.75;100885.25;4901138;29;20048;-56
2021/09/24 02:06:15;;;;;;;18.80;3.03;;;;;;;12.13;70.79;100878.78;4905471;29;20152;-52
2021/09/24 02:08:40;;;;;;;9.63;2.10;;;;;;;12.13;70.79;100878.78;4898095;29;20032;-52
2021/09/24 02:11:10;;;;;;;14.90;2.97;;;;;;;12.17;70.75;100887.16;4902626;29;20036;-53
2021/09/24 02:13:37;;;;;;;17.23;2.80;;;;;;;12.20;70.81;100887.44;4902633;29;20525;-53
2021/09/24 02:16:03;;;;;;;15.77;2.92;;;;;;;12.18;70.91;100886.91;4904680;29;20039;-55
2021/09/24 02:18:28;;;;;;;10.80;2.33;;;;;;;12.20;71.01;100884.75;4909048;29;20501;-54
2021/09/24 02:20:54;;;;;;;15.57;2.58;;;;;;;12.30;70.81;100900.16;4899212;29;20042;-53
2021/09/24 02:23:19;;;;;;;11.23;2.22;;;;;;;12.28;71.16;100897.75;4907618;29;20143;-53
2021/09/24 02:25:45;;;;;;;11.73;2.35;;;;;;;12.32;71.02;100889.97;4903929;29;20095;-53
2021/09/24 02:28:10;;;;;;;20.60;2.75;;;;;;;12.37;71.30;100908.81;4902807;29;20479;-54
2021/09/24 02:30:36;;;;;;;13.30;2.97;;;;;;;12.28;71.50;100913.84;4897616;29;20032;-54
2021/09/24 02:33:02;;;;;;;8.60;2.15;;;;;;;12.36;71.38;100913.38;4900974;29;20077;-54
2021/09/24 02:35:27;;;;;;;17.83;2.72;;;;;;;12.39;71.41;100915.59;4898983;29;20492;-55
2021/09/24 02:37:53;;;;;;;13.20;2.67;;;;;;;12.40;71.25;100919.88;4905763;29;20307;-54
2021/09/24 02:40:19;;;;;;;17.60;2.35;;;;;;;12.34;71.75;100922.75;4901923;29;20548;-54
2021/09/24 02:42:46;;;;;;;12.68;2.45;;;;;;;12.27;72.05;100924.88;4903861;29;20032;-56
2021/09/24 02:45:11;;;;;;;9.15;2.45;;;;;;;12.32;72.04;100933.78;4899028;29;20038;-53
2021/09/24 02:47:38;;;;;;;10.25;2.10;;;;;;;12.36;71.85;100934.88;4905543;29;20394;-53
2021/09/24 02:50:05;;;;;;;10.88;2.20;;;;;;;12.36;71.87;100939.44;4902713;29;20039;-53
2021/09/24 02:52:30;;;;;;;15.00;2.28;;;;;;;12.34;71.78;100945.06;4904713;29;20123;-53
2021/09/24 02:54:56;;;;;;;14.73;2.22;;;;;;;12.26;72.22;100947.41;4898728;29;20111;-53
2021/09/24 02:57:22;;;;;;;19.20;3.35;;;;;;;12.30;72.03;100945.84;4901654;29;20147;-53
2021/09/24 02:59:47;;;;;;;19.08;3.08;;;;;;;12.27;72.30;100940.97;4896180;29;20029;-54
2021/09/24 03:02:13;;;;;;;18.70;2.40;;;;;;;12.23;72.58;100956.00;4901582;29;20032;-53
2021/09/24 03:04:38;;;;;;;16.00;3.05;;;;;;;12.28;72.45;100961.41;4902734;29;20055;-53
2021/09/24 03:07:03;;;;;;;12.63;2.65;;;;;;;12.22;72.46;100965.13;4903600;29;20040;-53
2021/09/24 03:09:29;;;;;;;12.10;2.53;;;;;;;12.27;72.30;100963.28;4902152;29;20036;-53
2021/09/24 03:11:55;;;;;;;12.80;2.80;;;;;;;12.25;72.36;100967.28;4903822;29;20088;-53
2021/09/24 03:14:20;;;;;;;12.82;2.40;;;;;;;12.22;72.83;100968.63;4903758;29;21609;-53
2021/09/24 03:16:46;;;;;;;16.15;2.20;;;;;;;12.23;73.04;100969.44;4900136;29;20025;-52
2021/09/24 03:19:14;;;;;;;10.25;1.85;;;;;;;12.33;72.45;100983.75;4905705;29;20044;-54
2021/09/24 03:21:39;;;;;;;12.60;2.70;;;;;;;12.33;72.75;100982.94;4903009;29;20407;-55
2021/09/24 03:24:05;;;;;;;15.82;2.47;;;;;;;12.29;73.40;100976.47;4904841;29;20028;-53
2021/09/24 03:26:31;;;;;;;20.25;3.03;;;;;;;12.19;73.96;100974.47;4905395;29;20155;-53
2021/09/24 03:28:57;;;;;;;10.82;2.08;;;;;;;12.17;74.58;100992.72;4903338;29;20055;-55
2021/09/24 03:31:22;;;;;;;19.70;2.33;;;;;;;12.21;74.57;100998.38;4900022;29;20444;-53
2021/09/24 03:33:48;;;;;;;13.50;2.60;;;;;;;12.12;74.98;100994.53;4903435;29;20028;-53
2021/09/24 03:36:13;;;;;;;14.00;2.30;;;;;;;12.05;75.30;100992.88;4905045;29;20048;-55
2021/09/24 03:38:39;;;;;;;12.68;2.35;;;;;;;12.10;75.42;100998.28;4906164;29;20261;-53
2021/09/24 03:41:05;;;;;;;14.43;2.10;;;;;;;12.16;75.01;100998.34;4902543;29;20087;-56
2021/09/24 03:43:30;;;;;;;13.48;2.50;;;;;;;12.14;75.19;101003.97;4902597;29;20036;-53
2021/09/24 03:45:56;;;;;;;11.45;2.47;;;;;;;12.09;75.18;101006.59;4903875;29;20042;-55
2021/09/24 03:48:21;;;;;;;11.35;2.25;;;;;;;12.06;75.18;100993.69;4903908;29;20260;-53
2021/09/24 03:50:47;;;;;;;12.23;2.40;;;;;;;11.95;75.83;100994.63;4910296;29;20036;-55
2021/09/24 03:53:12;;;;;;;14.95;2.53;;;;;;;11.96;76.15;100988.19;4897772;29;20031;-56
2021/09/24 03:55:38;;;;;;;15.00;2.60;;;;;;;11.89;76.31;100982.22;4898951;29;20060;-53
2021/09/24 03:58:03;;;;;;;11.45;2.40;;;;;;;11.82;76.81;100997.69;4901159;29;20163;-53
2021/09/24 04:00:29;;;;;;;8.93;2.22;;;;;;;11.90;76.54;100990.00;4903785;29;20648;-54
2021/09/24 04:02:54;;;;;;;11.50;2.08;;;;;;;11.87;76.91;100995.06;4903390;29;20033;-54
2021/09/24 04:05:20;;;;;;;11.32;1.98;;;;;;;11.96;76.42;100982.81;4900516;29;20036;-53
2021/09/24 04:07:45;;;;;;;11.73;2.47;;;;;;;11.95;76.84;100997.31;4907829;29;20447;-53
2021/09/24 04:10:11;;;;;;;9.30;2.25;;;;;;;11.95;76.89;100995.44;4901449;29;20067;-53
2021/09/24 04:12:37;;;;;;;12.70;1.75;;;;;;;11.93;77.26;101004.81;4901659;29;20336;-54
2021/09/24 04:15:04;;;;;;;15.35;3.45;;;;;;;11.84;77.40;101012.47;4905283;29;20368;-54
2021/09/24 04:17:30;;;;;;;11.48;2.10;;;;;;;11.84;77.39;101007.09;4901220;29;20040;-54
2021/09/24 04:19:55;;;;;;;10.80;2.38;;;;;;;11.71;78.06;101029.75;4903841;29;20028;-55
2021/09/24 04:22:21;;;;;;;17.48;2.33;;;;;;;11.80;77.62;101012.16;4900897;29;20051;-55
2021/09/24 04:24:46;;;;;;;12.25;2.15;;;;;;;11.86;77.29;101020.31;4903657;29;20035;-53
2021/09/24 04:27:12;;;;;;;8.40;2.10;;;;;;;11.80;77.82;101016.72;4900897;29;20036;-54
2021/09/24 04:29:37;;;;;;;8.63;2.00;;;;;;;11.88;77.17;101023.53;4905775;29;20188;-56
2021/09/24 04:32:03;;;;;;;13.30;2.33;;;;;;;11.83;77.53;101020.78;4910232;29;20043;-56
2021/09/24 04:34:29;;;;;;;9.02;2.30;;;;;;;11.86;77.20;101023.00;4909395;29;20036;-55
2021/09/24 04:36:54;;;;;;;10.68;2.47;;;;;;;11.97;76.70;101022.84;4909553;29;20039;-55
2021/09/24 04:39:20;;;;;;;8.93;1.92;;;;;;;12.00;76.46;101026.91;4908481;29;20079;-55
2021/09/24 04:41:45;;;;;;;20.70;3.20;;;;;;;11.99;76.79;101014.53;4903128;29;20577;-56
2021/09/24 04:44:11;;;;;;;10.50;2.05;;;;;;;12.00;76.93;101022.34;4903592;29;20032;-55
2021/09/24 04:46:36;;;;;;;13.68;2.50;;;;;;;11.98;77.23;101021.78;4911754;29;20387;-55
2021/09/24 04:49:02;;;;;;;13.55;2.58;;;;;;;11.93;77.44;101031.66;4901502;29;20028;-55
2021/09/24 04:51:28;;;;;;;13.25;2.22;;;;;;;11.87;77.40;101032.66;4904519;29;20223;-53
2021/09/24 04:53:53;;;;;;;11.35;2.50;;;;;;;11.97;77.26;101038.16;4906142;29;20028;-56
2021/09/24 04:56:19;;;;;;;15.32;2.40;;;;;;;11.82;78.25;101046.00;4902462;29;20501;-53
2021/09/24 04:58:44;;;;;;;13.68;2.13;;;;;;;11.92;77.80;101051.50;4912945;29;20525;-56
2021/09/24 05:01:10;;;;;;;8.85;2.00;;;;;;;11.86;78.32;101049.84;4903486;29;20114;-56
2021/09/24 05:03:35;;;;;;;11.65;2.55;;;;;;;11.76;78.70;101051.28;4901715;29;20107;-53
2021/09/24 05:06:01;;;;;;;14.05;2.35;;;;;;;11.80;78.42;101060.50;4901039;29;20037;-55
2021/09/24 05:08:26;;;;;;;17.20;2.45;;;;;;;11.77;78.82;101066.31;4902303;29;20024;-56
2021/09/24 05:10:52;;;;;;;14.05;2.47;;;;;;;11.74;79.15;101064.16;4904390;29;20031;-55
2021/09/24 05:13:17;;;;;;;12.70;2.35;;;;;;;11.74;79.03;101074.88;4906972;29;20494;-53
2021/09/24 05:15:43;;;;;;;15.60;3.20;;;;;;;11.65;79.61;101067.47;4905891;29;20030;-53
2021/09/24 05:18:08;;;;;;;21.88;4.13;;;;;;;11.50;80.25;101076.16;4914227;29;20043;-56
2021/09/24 05:20:34;;;;;;;15.98;2.25;;;;;;;11.49;80.32;101080.72;4898650;29;20551;-56
2021/09/24 05:22:59;;;;;;;14.18;2.53;;;;;;;11.56;80.11;101074.34;4902635;29;20035;-55
2021/09/24 05:25:25;;;;;;;13.95;2.50;;;;;;;11.52;80.20;101074.03;4895467;29;20035;-55
2021/09/24 05:27:51;;;;;;;10.27;1.80;;;;;;;11.50;80.47;101073.47;4898882;29;20355;-55
2021/09/24 05:30:16;;;;;;;16.10;2.70;;;;;;;11.55;79.97;101065.47;4897356;29;20076;-54
2021/09/24 05:32:43;;;;;;;11.77;2.50;;;;;;;11.59;79.93;101071.16;4897489;29;20032;-54
2021/09/24 05:35:09;;;;;;;9.30;2.08;;;;;;;11.52;80.21;101084.75;4898163;29;20036;-55
2021/09/24 05:37:35;;;;;;;18.05;2.72;;;;;;;11.63;79.88;101078.47;4901347;29;20076;-55
2021/09/24 05:40:00;;;;;;;16.75;2.63;;;;;;;11.67;79.46;101082.31;4898747;29;20040;-55
2021/09/24 05:42:26;;;;;;;12.20;2.65;;;;;;;11.66;79.60;101080.66;4899051;29;20032;-53
2021/09/24 05:44:51;;;;;;;18.00;2.75;;;;;;;11.78;78.49;101091.31;4899531;29;20269;-56
2021/09/24 05:47:17;;;;;;;14.57;3.33;;;;;;;11.91;77.96;101080.25;4897979;29;20442;-53
2021/09/24 05:49:42;;;;;;;14.63;2.20;;;;;;;12.04;77.05;101084.44;4899063;29;20027;-54
2021/09/24 05:52:08;;;;;;;13.38;2.75;;;;;;;12.01;76.94;101098.34;4901570;29;20488;-54
2021/09/24 05:54:33;;;;;;;13.60;3.53;;;;;;;12.02;76.73;101094.59;4899414;29;20032;-56
2021/09/24 05:56:59;;;;;;;11.88;2.80;;;;;;;12.09;76.72;101092.56;4898103;29;20027;-53
2021/09/24 05:59:24;;;;;;;12.73;2.90;;;;;;;12.16;76.18;101092.34;4899830;29;20029;-53
2021/09/24 06:01:50;;;;;;;13.73;2.40;;;;;;;12.21;75.59;101084.34;4898449;29;20115;-53
2021/09/24 06:04:17;;;;;;;12.25;2.65;;;;;;;12.15;75.58;101090.72;4901811;29;20032;-54
2021/09/24 06:06:42;;;;;;;14.57;2.38;;;;;;;12.22;75.20;101097.56;4900179;29;20050;-53
2021/09/24 06:09:08;;;;;;;17.38;2.63;;;;;;;12.16;75.50;101101.22;4895131;29;20029;-54
2021/09/24 06:11:34;;;;;;;18.13;2.97;;;;;;;12.16;75.44;101101.22;4897075;29;20541;-56
2021/09/24 06:13:59;;;;;;;13.82;2.80;;;;;;;12.22;75.36;101111.00;4899884;29;20031;-53
2021/09/24 06:16:25;;;;;;;12.80;2.75;;;;;;;12.22;75.15;101102.94;4900281;29;20040;-53
2021/09/24 06:18:51;;;;;;;11.45;1.88;;;;;;;12.32;74.86;101105.72;4906639;29;20060;-53
2021/09/24 06:21:19;;;;;;;12.52;2.60;;;;;;;12.35;74.96;101107.09;4901830;29;20028;-53
2021/09/24 06:23:45;;;;;;;18.45;2.97;;;;;;;12.46;74.29;101111.53;4897597;29;20032;-53
2021/09/24 06:26:11;;;;;;;10.90;2.50;;;;;;;12.37;74.26;101108.47;4897695;29;20037;-55
2021/09/24 06:28:37;;;;;;;10.68;2.10;;;;;;;12.36;74.13;101114.09;4896739;29;20035;-55
2021/09/24 06:31:04;;;;;;;10.45;2.15;;;;;;;12.40;74.23;101124.13;4904382;29;20032;-53
2021/09/24 06:33:29;;;;;;;16.80;2.90;;;;;;;12.47;74.13;101123.91;4897961;29;20088;-55
2021/09/24 06:35:55;;;;;;;18.25;3.05;;;;;;;12.37;74.03;101135.34;4895325;29;20036;-55
2021/09/24 06:38:20;;;;;;;14.23;2.80;;;;;;;12.41;74.08;101141.03;4894858;29;20033;-56
2021/09/24 06:40:46;;;;;;;15.15;2.95;;;;;;;12.49;73.90;101135.22;4896256;29;20029;-54
2021/09/24 06:43:12;;;;;;;16.00;2.95;;;;;;;12.57;73.48;101142.84;4902709;29;20040;-55
2021/09/24 06:45:37;;;;;;;12.38;2.72;;;;;;;12.57;73.54;101144.72;4899295;29;20394;-56
2021/09/24 06:48:04;;;;;;;13.25;2.67;;;;;;;12.42;73.90;101150.72;4901311;29;20172;-56
2021/09/24 06:50:30;;;;;;;17.52;2.53;;;;;;;12.51;73.40;101156.47;4895814;29;20119;-54
2021/09/24 06:52:56;;;;;;;12.82;2.67;;;;;;;12.54;73.20;101151.41;4895542;29;20448;-54
2021/09/24 06:55:24;;;;;;;14.73;2.65;;;;;;;12.38;73.73;101163.00;4900800;29;20032;-53
2021/09/24 06:57:51;;;;;;;16.58;3.13;;;;;;;12.44;73.59;101174.66;4901493;29;20119;-54
2021/09/24 07:00:16;;;;;;;12.32;3.13;;;;;;;12.36;73.60;101165.16;4897855;29;20033;-55
2021/09/24 07:02:42;;;;;;;16.38;2.50;;;;;;;12.58;73.02;101170.53;4913075;29;20044;-53
2021/09/24 07:05:08;;;;;;;13.00;2.47;;;;;;;12.75;72.14;101162.38;4903538;29;20028;-55
2021/09/24 07:07:33;;;;;;;17.92;3.25;;;;;;;12.73;72.25;101165.31;4896284;29;20498;-57
2021/09/24 07:09:59;;;;;;;8.93;2.40;;;;;;;12.82;72.31;101179.94;4896008;29;20035;-55
2021/09/24 07:12:25;;;;;;;15.82;2.67;;;;;;;12.86;71.70;101185.63;4891625;29;20032;-56
2021/09/24 07:14:51;;;;;;;13.35;2.08;;;;;;;13.00;71.18;101182.31;4899162;29;20119;-56
2021/09/24 07:17:17;;;;;;;14.75;3.47;;;;;;;13.03;70.99;101178.28;4908219;29;20114;-54
2021/09/24 07:19:42;;;;;;;11.35;2.10;;;;;;;13.19;70.70;101184.66;4906709;29;20032;-54
2021/09/24 07:22:09;;;;;;;12.98;2.35;;;;;;;13.16;70.80;101195.91;4905416;29;20079;-56
2021/09/24 07:24:35;;;;;;;9.75;2.55;;;;;;;13.24;69.69;101188.22;4906869;29;20039;-55
2021/09/24 07:27:00;;;;;;;14.05;2.38;;;;;;;13.21;69.74;101193.28;4904507;29;20371;-55
2021/09/24 07:29:26;;;;;;;18.27;3.35;;;;;;;13.27;69.33;101192.25;4897951;29;20123;-53
2021/09/24 07:31:52;;;;;;;12.57;3.50;;;;;;;13.35;68.37;101191.81;4891328;29;20083;-55
2021/09/24 07:34:17;;;;;;;13.18;2.30;;;;;;;13.64;68.05;101191.50;4894512;29;20084;-53
2021/09/24 07:36:43;;;;;;;14.60;2.58;;;;;;;13.54;67.89;101193.06;4898066;29;20451;-53
2021/09/24 07:39:08;;;;;;;9.02;3.00;;;;;;;13.48;68.04;101190.59;4896319;29;20062;-53
2021/09/24 07:41:34;;;;;;;17.02;3.22;;;;;;;13.44;68.41;101195.66;4898986;29;20029;-55
2021/09/24 07:44:03;;;;;;;16.13;2.85;;;;;;;13.39;68.44;101200.19;4896295;29;20039;-55
2021/09/24 07:46:28;;;;;;;14.25;2.85;;;;;;;13.69;67.91;101196.94;4895053;29;20057;-53
2021/09/24 07:48:53;;;;;;;11.05;2.38;;;;;;;13.75;67.18;101204.78;4896928;29;20044;-52
2021/09/24 07:51:19;;;;;;;29.35;3.45;;;;;;;13.77;66.36;101234.16;4895897;29;20101;-55
2021/09/24 07:53:45;;;;;;;17.30;3.13;;;;;;;13.60;67.58;101207.38;4896497;29;20531;-53
2021/09/24 07:56:11;;;;;;;19.13;2.88;;;;;;;13.90;67.01;101206.78;4896463;29;20039;-53
2021/09/24 07:58:38;;;;;;;12.10;2.50;;;;;;;13.91;66.45;101208.41;4897745;29;20353;-56
2021/09/24 08:01:07;;;;;;;17.98;2.28;;;;;;;13.96;66.52;101211.13;4894778;29;20529;-53
2021/09/24 08:03:34;;;;;;;12.10;3.08;;;;;;;14.04;66.21;101209.84;4899327;29;20033;-55
2021/09/24 08:06:00;;;;;;;10.40;2.83;;;;;;;14.34;65.63;101210.00;4904134;29;20557;-53
2021/09/24 08:08:26;;;;;;;13.77;2.67;;;;;;;14.61;64.60;101211.81;4898797;29;20115;-55
2021/09/24 08:10:52;;;;;;;16.05;3.05;;;;;;;14.63;64.18;101218.56;4900590;29;20284;-55
2021/09/24 08:13:17;;;;;;;19.85;2.92;;;;;;;14.73;64.37;101215.09;4901645;29;20025;-53
2021/09/24 08:15:43;;;;;;;19.55;3.05;;;;;;;14.84;63.79;101219.44;4901250;29;20031;-56
2021/09/24 08:18:14;;;;;;;13.70;3.40;;;;;;;15.17;62.82;101214.69;4900995;29;20170;-56
2021/09/24 08:20:41;;;;;;;13.80;3.20;;;;;;;15.33;61.09;101221.72;4898324;29;20481;-56
2021/09/24 08:23:07;;;;;;;12.82;2.88;;;;;;;15.36;60.65;101213.88;4900490;29;20111;-52
2021/09/24 08:25:32;;;;;;;22.52;4.00;;;;;;;15.31;59.83;101218.47;4899737;29;20446;-54
2021/09/24 08:27:58;;;;;;;13.13;2.63;;;;;;;15.37;59.98;101218.22;4900900;29;20055;-53
2021/09/24 08:30:25;;;;;;;24.38;3.20;;;;;;;15.76;59.19;101208.78;4902042;29;20036;-55
2021/09/24 08:32:52;;;;;;;19.05;3.08;;;;;;;15.96;57.63;101219.59;4903633;29;20029;-52
2021/09/24 08:35:21;;;;;;;13.90;2.55;;;;;;;16.13;56.39;101211.19;4898785;29;20029;-52
2021/09/24 08:37:49;;;;;;;11.75;2.78;;;;;;;15.77;56.29;101207.72;4900500;29;20024;-56
2021/09/24 08:40:15;;;;;;;8.48;2.30;;;;;;;15.52;57.26;101214.72;4906323;29;20032;-55
2021/09/24 08:42:42;;;;;;;15.25;3.33;;;;;;;15.69;58.23;101217.19;4904987;29;20066;-55
2021/09/24 08:45:26;;;;;;;18.30;3.05;;;;;;;15.61;57.75;101220.41;4898641;29;20036;-52
2021/09/24 08:47:54;;;;;;;14.93;2.50;;;;;;;15.23;57.69;101227.91;4897764;29;20039;-54
2021/09/24 08:50:20;;;;;;;11.30;2.28;;;;;;;15.32;57.87;101220.09;4896701;29;20063;-53
2021/09/24 08:52:46;;;;;;;10.70;2.30;;;;;;;15.22;57.91;101220.88;4893483;29;20104;-55
2021/09/24 08:55:12;;;;;;;16.73;2.75;;;;;;;15.39;58.38;101229.56;4897149;29;20036;-53
2021/09/24 08:57:41;;;;;;;15.85;2.40;;;;;;;15.36;57.93;101227.38;4896541;29;20042;-54
2021/09/24 09:00:07;;;;;;;17.08;2.92;;;;;;;15.43;58.11;101235.22;4899844;29;20623;-54
2021/09/24 09:02:54;;;;;;;14.80;2.70;;;;;;;15.47;57.44;101236.31;4897013;29;20107;-56
2021/09/24 09:05:20;;;;;;;9.73;2.35;;;;;;;15.43;57.19;101236.03;4897629;29;20035;-53
2021/09/24 09:07:46;;;;;;;14.63;2.97;;;;;;;15.41;57.37;101243.59;4902850;29;20040;-53
2021/09/24 09:10:12;;;;;;;11.80;2.75;;;;;;;15.38;57.04;101240.63;4897391;29;20039;-54
2021/09/24 09:12:38;;;;;;;13.00;2.60;;;;;;;15.50;57.26;101251.19;4897161;29;20032;-53
2021/09/24 09:15:09;;;;;;;17.38;3.75;;;;;;;15.59;56.05;101245.00;4897727;29;20284;-55
2021/09/24 09:17:39;;;;;;;13.30;2.50;;;;;;;15.69;55.34;101249.59;4897781;29;20400;-55
2021/09/24 09:20:13;;;;;;;12.75;2.88;;;;;;;15.59;55.49;101247.69;4911586;29;20032;-53
2021/09/24 09:22:39;;;;;;;10.17;2.63;;;;;;;15.56;55.37;101236.59;4895280;29;20041;-53
2021/09/24 09:25:33;;;;;;;15.93;2.42;;;;;;;16.01;55.43;101241.22;4898527;29;20032;-56
2021/09/24 09:28:11;;;;;;;12.63;2.75;;;;;;;16.07;54.41;101240.13;4895164;29;20048;-55
2021/09/24 09:30:38;;;;;;;13.88;2.80;;;;;;;16.07;54.66;101239.31;4904227;29;20054;-53
2021/09/24 09:33:10;;;;;;;10.15;2.22;;;;;;;16.14;54.21;101237.13;4913808;29;20122;-56
2021/09/24 09:35:45;;;;;;;12.95;2.70;;;;;;;15.63;54.98;101250.69;4908249;29;20047;-55
2021/09/24 09:38:25;;;;;;;14.30;2.85;;;;;;;15.55;55.69;101237.66;4898687;29;20319;-55
2021/09/24 09:41:13;;;;;;;14.68;3.22;;;;;;;15.56;55.24;101244.69;4904740;29;20491;-57
2021/09/24 09:43:44;;;;;;;11.27;2.70;;;;;;;15.49;54.13;101238.75;4903859;29;20064;-56
2021/09/24 09:46:23;;;;;;;14.02;2.72;;;;;;;15.52;54.71;101241.72;4898498;29;20031;-55
2021/09/24 09:49:11;;;;;;;11.35;2.50;;;;;;;15.32;55.50;101250.63;4892884;29;20662;-57
2021/09/24 09:51:39;;;;;;;18.02;3.67;;;;;;;15.64;55.40;101250.41;4897289;29;20044;-54
2021/09/24 09:54:11;;;;;;;13.10;2.55;;;;;;;15.86;55.61;101254.75;4906528;29;20028;-53
2021/09/24 09:56:49;;;;;;;16.73;2.70;;;;;;;15.93;53.84;101245.25;4896729;29;20069;-53
2021/09/24 09:59:29;;;;;;;15.43;3.90;;;;;;;16.08;54.37;101251.75;4896919;29;20197;-54
2021/09/24 10:02:13;;;;;;;22.02;4.80;;;;;;;15.70;54.43;101235.81;4894601;29;20032;-56
2021/09/24 10:04:39;;;;;;;18.42;3.55;;;;;;;16.06;54.32;101237.69;4895760;29;20036;-53
2021/09/24 10:07:23;;;;;;;12.50;2.55;;;;;;;15.95;54.86;101232.28;4903501;29;20170;-52
2021/09/24 10:10:11;;;;;;;14.27;2.63;;;;;;;15.74;53.05;101241.50;4907094;29;20055;-57
2021/09/24 10:12:38;;;;;;;11.63;1.98;;;;;;;15.95;53.45;101248.50;4902765;29;20468;-52
2021/09/24 10:15:06;;;;;;;12.40;2.15;;;;;;;16.13;53.05;101244.44;4895171;29;20371;-53
2021/09/24 10:17:31;;;;;;;12.18;2.88;;;;;;;16.01;53.29;101235.81;4894749;29;20032;-54
2021/09/24 10:19:57;;;;;;;18.40;3.70;;;;;;;15.99;53.74;101246.91;4896521;29;20031;-53
2021/09/24 10:22:26;;;;;;;12.88;2.35;;;;;;;15.76;53.83;101250.13;4894575;29;20447;-55
2021/09/24 10:24:56;;;;;;;18.40;2.85;;;;;;;15.68;53.29;101243.38;4893665;29;20487;-55
2021/09/24 10:27:38;;;;;;;11.77;2.97;;;;;;;15.81;54.12;101246.63;4899028;29;20028;-55
2021/09/24 10:30:24;;;;;;;16.33;2.80;;;;;;;15.96;53.92;101252.81;4892220;29;20542;-55
2021/09/24 10:32:54;;;;;;;8.98;2.08;;;;;;;16.05;53.81;101255.00;4897471;29;20454;-55
2021/09/24 10:35:19;;;;;;;14.00;2.78;;;;;;;15.86;53.96;101254.75;4895288;29;20036;-55
2021/09/24 10:37:47;;;;;;;14.70;2.83;;;;;;;16.00;54.05;101255.81;4900794;29;20025;-56
2021/09/24 10:40:19;;;;;;;17.67;3.47;;;;;;;16.07;54.10;101250.94;4897819;29;20459;-54
2021/09/24 10:42:47;;;;;;;15.35;3.40;;;;;;;16.29;53.29;101247.91;4900440;29;20474;-53
2021/09/24 10:45:18;;;;;;;12.55;2.42;;;;;;;16.26;53.57;101251.16;4904251;29;20066;-53
2021/09/24 10:48:04;;;;;;;11.93;3.33;;;;;;;16.12;53.08;101242.81;4904181;29;20390;-54
2021/09/24 10:50:29;;;;;;;11.57;2.92;;;;;;;16.31;52.46;101246.56;4897558;29;20454;-56
2021/09/24 10:56:02;;;;;;;12.80;2.50;;;;;;;16.44;53.33;101241.66;4899732;29;20043;-54
2021/09/24 10:58:28;;;;;;;13.80;2.58;;;;;;;16.31;52.48;101251.16;4894715;29;20396;-55
2021/09/24 11:01:00;;;;;;;15.38;3.80;;;;;;;16.22;52.73;101250.09;4896162;29;20039;-53
2021/09/24 11:03:28;;;;;;;7.85;2.50;;;;;;;16.19;53.58;101242.53;4893975;29;20058;-54
2021/09/24 11:05:57;;;;;;;13.70;2.92;;;;;;;16.19;52.93;101253.34;4896221;29;20024;-56
2021/09/24 11:08:37;;;;;;;13.18;2.33;;;;;;;16.29;53.54;101243.31;4914358;29;20409;-53
2021/09/24 11:11:19;;;;;;;12.70;3.10;;;;;;;16.50;53.46;101244.06;4893733;29;20479;-56
2021/09/24 11:13:51;;;;;;;15.25;2.88;;;;;;;16.72;53.29;101251.88;4894750;29;20507;-56
2021/09/24 11:16:21;;;;;;;16.65;2.95;;;;;;;16.84;52.93;101238.81;4893888;29;20039;-55
2021/09/24 11:18:54;;;;;;;15.90;2.83;;;;;;;16.76;53.08;101257.56;4894358;29;20020;-54
2021/09/24 11:21:22;;;;;;;13.05;2.50;;;;;;;16.93;52.07;101247.19;4898108;29;20036;-56